Aérodrome :
LOGIN :

S'inscrire | Disclaimer

   EN    FR    IT 

 










Légende :    VFR   VFR Marginal   IFR   IFR Intensif   IFR Très Intensif
Visi : 
Plafond : 
>= 8 km
>= 3000ft
5 à 8 km
1000 à 3000 ft
1500m à 5 km
500 à 1000 ft
800 à 1500m
200 à 500 ft
< 800m
< 200 ft
Symboles :   Orages  Brouillard  Fortes neiges  Fortes précipitations  Vent > 20 kt
SIGMETs :   Divers  Orages  Givrage  Turbulence  Onde Orograph.  Cendres Volcan.






- Altitude de l'aérodrome : 220 ft
- Code IATA : CWL


EGFF - Cardiff Rhoose

DERNIER METAR :
  • 190620Z AUTO 30004KT 9999 SCT021/// OVC047/// //////CB 09/09 Q0998

METARs EXPIRÉS :
  • 190550Z AUTO 32003KT 9999 FEW046 09/08 Q0998
  • 190520Z AUTO 29004KT 9999 -RA BKN037/// //////TCU 10/09 Q0998
  • 190450Z AUTO 26004KT 230V300 9999 -RA SCT022/// BKN033/// OVC047/// //////CB 10/09 Q0998
  • 190420Z AUTO 26004KT 9999 FEW036/// BKN044/// //////CB 09/09 Q0997
  • 190350Z AUTO 27004KT 9999 -RA FEW037/// BKN045/// //////CB 09/08 Q0997
  • 190320Z AUTO 29005KT 9999 -RA FEW019/// BKN031/// //////CB 09/08 Q0997

TAF TAF EGFF
Valide du 19 à 06h jusqu'au 20 à 06h UTC


190503Z 1906/2006 28008KT 9999 FEW014 SCT035
TEMPO 1906/1922 7000 SHRA
PROB30
TEMPO 1906/1909 4000 +SHRA BKN012
PROB30
TEMPO 1922/2006 4000 BR
BECMG 2000/2003 02010KT
ATIS : +44 1446 729 319



MET'MAP, la Météo Aéronautique d'un coup d'oeil ! - Copyright ORBIFLY Décembre 2007 - Disclaimer

ORBIFLY MET'MAP TEAM :

Programmation & Développement : Alexandra Zaïnal
Conception & Développement : Baudouin d'Aumeries
Co-Programmation & Développement : Marc-Olivier Méhu
Soutien technique & logistique : Manuel Goepfert

Contact : metmap@orbifly.com




SOURCES & CREDITS :

   NOAA